createdAt,value
2019-05-05T00:00:06.891Z,4.37
2019-05-05T00:02:34.836Z,4.13
2019-05-05T00:05:02.404Z,4.60
2019-05-05T00:07:29.978Z,3.83
2019-05-05T00:09:57.583Z,5.80
2019-05-05T00:12:28.180Z,5.30
2019-05-05T00:14:55.708Z,4.17
2019-05-05T00:17:26.129Z,4.40
2019-05-05T00:19:55.159Z,4.20
2019-05-05T00:22:21.284Z,6.97
2019-05-05T00:24:49.434Z,7.10
2019-05-05T00:27:17.007Z,5.47
2019-05-05T00:29:45.300Z,4.53
2019-05-05T00:32:15.099Z,7.00
2019-05-05T00:34:40.524Z,5.23
2019-05-05T00:37:08.871Z,5.07
2019-05-05T00:39:36.468Z,4.83
2019-05-05T00:42:04.887Z,5.50
2019-05-05T00:44:32.380Z,4.10
2019-05-05T00:47:02.600Z,5.23
2019-05-05T00:49:42.803Z,7.10
2019-05-05T00:51:57.799Z,5.60
2019-05-05T00:54:25.371Z,5.20
2019-05-05T00:56:54.485Z,5.40
2019-05-05T00:59:20.549Z,4.97
2019-05-05T01:01:51.574Z,6.80
2019-05-05T01:04:19.147Z,5.53
2019-05-05T01:06:47.520Z,5.17
2019-05-05T01:09:15.860Z,5.07
2019-05-05T01:11:44.626Z,4.73
2019-05-05T01:14:14.326Z,4.77
2019-05-05T01:16:39.783Z,4.73
2019-05-05T01:19:07.354Z,5.47
2019-05-05T01:21:35.027Z,5.30
2019-05-05T01:24:02.528Z,6.83
2019-05-05T01:26:30.134Z,5.53
2019-05-05T01:28:57.708Z,5.13
2019-05-05T01:31:25.315Z,6.83
2019-05-05T01:34:10.933Z,4.67
2019-05-05T01:36:38.504Z,5.40
2019-05-05T01:39:18.288Z,4.70
2019-05-05T01:41:45.822Z,5.03
2019-05-05T01:44:15.253Z,4.50
2019-05-05T01:46:41.356Z,4.93
2019-05-05T01:49:08.925Z,5.07
2019-05-05T01:51:36.540Z,4.97
2019-05-05T01:54:05.212Z,4.80
2019-05-05T01:56:31.695Z,5.43
2019-05-05T01:58:59.297Z,6.80
2019-05-05T02:01:26.870Z,7.30
2019-05-05T02:03:55.603Z,5.30
2019-05-05T02:06:24.858Z,5.40
2019-05-05T02:08:50.752Z,4.90
2019-05-05T02:11:19.105Z,4.53
2019-05-05T02:13:46.688Z,4.77
2019-05-05T02:16:15.158Z,5.90
2019-05-05T02:18:42.630Z,5.20
2019-05-05T02:21:10.973Z,4.97
2019-05-05T02:23:38.614Z,5.30
2019-05-05T02:26:06.186Z,4.83
2019-05-05T02:28:34.741Z,4.60
2019-05-05T02:31:07.349Z,4.87
2019-05-05T02:33:35.420Z,5.10
2019-05-05T02:36:05.272Z,4.30
2019-05-05T02:38:30.873Z,5.90
2019-05-05T02:40:58.466Z,4.90
2019-05-05T02:43:26.094Z,3.97
2019-05-05T02:45:59.152Z,5.93
2019-05-05T02:48:26.722Z,6.90
2019-05-05T02:51:00.262Z,5.10
2019-05-05T02:53:21.895Z,4.77
2019-05-05T02:55:49.469Z,4.20
2019-05-05T02:58:17.843Z,4.60
2019-05-05T03:00:55.176Z,5.00
2019-05-05T03:03:23.858Z,4.90
2019-05-05T03:05:50.806Z,5.00
2019-05-05T03:08:18.375Z,4.53
2019-05-05T03:10:45.982Z,4.40
2019-05-05T03:13:13.980Z,4.93
2019-05-05T03:15:50.928Z,5.07
2019-05-05T03:18:18.496Z,4.73
2019-05-05T03:20:46.074Z,4.87
2019-05-05T03:23:15.144Z,4.87
2019-05-05T03:25:44.011Z,4.53
2019-05-05T03:28:10.288Z,6.50
2019-05-05T03:30:38.669Z,6.50
2019-05-05T03:33:07.306Z,5.37
2019-05-05T03:35:34.883Z,5.40
2019-05-05T03:38:03.873Z,4.90
2019-05-05T03:40:30.706Z,6.87
2019-05-05T03:42:58.280Z,5.50
2019-05-05T03:45:34.958Z,5.17
2019-05-05T03:48:04.489Z,4.00
2019-05-05T03:50:30.158Z,6.40
2019-05-05T03:52:57.736Z,5.67
2019-05-05T03:55:25.309Z,4.97
2019-05-05T03:57:53.839Z,4.73
2019-05-05T04:00:26.352Z,5.10
2019-05-05T04:02:56.868Z,4.87
2019-05-05T04:05:34.003Z,4.40
2019-05-05T04:08:03.796Z,4.50
2019-05-05T04:10:29.112Z,4.43
2019-05-05T04:12:56.729Z,4.70
2019-05-05T04:15:24.536Z,6.93
2019-05-05T04:17:53.586Z,4.80
2019-05-05T04:20:19.473Z,5.10
2019-05-05T04:22:47.047Z,5.13
2019-05-05T04:25:15.391Z,4.43
2019-05-05T04:27:44.475Z,4.83
2019-05-05T04:30:10.608Z,6.77
2019-05-05T04:32:38.175Z,7.10
2019-05-05T04:35:05.788Z,8.17
2019-05-05T04:37:34.125Z,7.27
2019-05-05T04:40:00.988Z,7.20
2019-05-05T04:42:29.337Z,6.10
2019-05-05T04:44:56.911Z,6.00
2019-05-05T04:47:24.526Z,5.20
2019-05-05T04:49:54.786Z,7.40
2019-05-05T04:52:23.651Z,7.80
2019-05-05T04:54:49.971Z,5.90
2019-05-05T04:57:17.541Z,5.47
2019-05-05T04:59:45.115Z,5.70
2019-05-05T05:02:24.786Z,5.57
2019-05-05T05:04:53.523Z,6.80
2019-05-05T05:07:19.922Z,6.00
2019-05-05T05:09:47.538Z,6.10
2019-05-05T05:12:15.110Z,6.10
2019-05-05T05:14:44.144Z,7.03
2019-05-05T05:17:10.290Z,6.60
2019-05-05T05:19:38.630Z,8.70
2019-05-05T05:22:06.201Z,6.90
2019-05-05T05:24:34.446Z,6.33
2019-05-05T05:27:01.371Z,7.60
2019-05-05T05:29:29.265Z,6.23
2019-05-05T05:31:56.836Z,5.77
2019-05-05T05:34:24.407Z,5.00
2019-05-05T05:36:53.633Z,5.30
2019-05-05T05:39:22.105Z,5.23
2019-05-05T05:41:49.678Z,5.27
2019-05-05T05:44:20.850Z,5.33
2019-05-05T05:46:51.243Z,5.60
2019-05-05T05:49:27.863Z,8.10
2019-05-05T05:51:55.438Z,5.93
2019-05-05T05:54:23.489Z,6.27
2019-05-05T05:56:50.607Z,6.00
2019-05-05T05:59:18.952Z,6.07
2019-05-05T06:01:46.570Z,6.50
2019-05-05T06:04:14.498Z,6.27
2019-05-05T06:06:43.749Z,5.90
2019-05-05T06:09:09.336Z,6.83
2019-05-05T06:11:37.682Z,7.60
2019-05-05T06:14:05.254Z,9.48
2019-05-05T06:16:34.125Z,6.97
2019-05-05T06:19:00.440Z,6.93
2019-05-05T06:21:28.010Z,6.73
2019-05-05T06:23:55.606Z,6.67
2019-05-05T06:26:24.005Z,7.23
2019-05-05T06:28:51.590Z,7.17
2019-05-05T06:31:19.163Z,6.87
2019-05-05T06:33:46.738Z,6.97
2019-05-05T06:36:14.356Z,7.13
2019-05-05T06:38:43.768Z,7.97
2019-05-05T06:41:14.682Z,7.97
2019-05-05T06:43:47.452Z,9.70
2019-05-05T06:46:15.030Z,9.23
2019-05-05T06:48:43.861Z,9.00
2019-05-05T06:51:11.007Z,8.27
2019-05-05T06:53:38.578Z,9.40
2019-05-05T06:56:06.150Z,8.90
2019-05-05T06:58:34.728Z,8.50
2019-05-05T07:01:03.556Z,10.88
2019-05-05T07:03:29.066Z,8.93
2019-05-05T07:05:56.700Z,9.10
2019-05-05T07:08:24.493Z,8.20
2019-05-05T07:10:51.847Z,8.63
2019-05-05T07:13:19.517Z,9.53
2019-05-05T07:15:47.092Z,8.70
2019-05-05T07:18:14.676Z,10.77
2019-05-05T07:20:44.082Z,9.27
2019-05-05T07:23:09.869Z,8.43
2019-05-05T07:25:42.875Z,10.20
2019-05-05T07:28:05.080Z,11.88
2019-05-05T07:30:33.575Z,9.90
2019-05-05T07:33:00.411Z,9.10
2019-05-05T07:35:34.590Z,8.40
2019-05-05T07:38:01.685Z,10.60
2019-05-05T07:40:29.257Z,8.23
2019-05-05T07:42:56.887Z,7.50
2019-05-05T07:45:25.813Z,7.80
2019-05-05T07:47:53.833Z,7.07
2019-05-05T07:50:31.240Z,9.15
2019-05-05T07:52:47.609Z,8.17
2019-05-05T07:55:15.183Z,7.87
2019-05-05T07:57:43.503Z,7.90
2019-05-05T08:00:10.378Z,7.80
2019-05-05T08:02:38.717Z,6.90
2019-05-05T08:05:06.289Z,6.87
2019-05-05T08:07:34.110Z,8.52
2019-05-05T08:10:01.464Z,8.57
2019-05-05T08:12:29.578Z,7.63
2019-05-05T08:14:57.156Z,8.23
2019-05-05T08:17:30.354Z,8.80
2019-05-05T08:20:04.092Z,5.37
2019-05-05T08:22:31.308Z,5.03
2019-05-05T08:25:07.786Z,4.67
2019-05-05T08:27:36.128Z,4.20
2019-05-05T08:30:09.725Z,3.20
2019-05-05T08:32:37.337Z,4.70
2019-05-05T08:35:05.671Z,3.90
2019-05-05T08:37:34.310Z,3.70
2019-05-05T08:40:04.204Z,3.80
2019-05-05T08:42:30.505Z,4.17
2019-05-05T08:44:58.078Z,4.20
2019-05-05T08:47:28.165Z,4.10
2019-05-05T08:49:53.770Z,5.53
2019-05-05T08:52:20.842Z,5.28
2019-05-05T08:54:48.945Z,4.70
2019-05-05T08:57:16.512Z,4.27
2019-05-05T08:59:44.089Z,4.33
2019-05-05T09:02:12.039Z,4.90
2019-05-05T09:04:39.613Z,3.90
2019-05-05T09:07:07.181Z,3.60
2019-05-05T09:09:35.568Z,3.97
2019-05-05T09:12:04.566Z,4.00
2019-05-05T09:14:34.428Z,3.70
2019-05-05T09:16:59.894Z,3.40
2019-05-05T09:19:28.234Z,3.40
2019-05-05T09:21:56.189Z,3.90
2019-05-05T09:24:24.974Z,2.90
2019-05-05T09:26:54.100Z,2.97
2019-05-05T09:29:24.166Z,3.43
2019-05-05T09:31:49.550Z,3.17
2019-05-05T09:34:17.123Z,2.77
2019-05-05T09:36:44.729Z,3.60
2019-05-05T09:39:13.853Z,2.67
2019-05-05T09:41:39.874Z,3.27
2019-05-05T09:44:07.474Z,3.20
2019-05-05T09:46:35.047Z,4.10
2019-05-05T09:49:04.707Z,3.63
2019-05-05T09:51:31.080Z,3.13
2019-05-05T09:54:10.946Z,4.20
2019-05-05T09:56:26.280Z,3.60
2019-05-05T09:58:54.478Z,2.80
2019-05-05T10:01:21.438Z,2.97
2019-05-05T10:03:49.059Z,3.60
2019-05-05T10:06:16.639Z,3.73
2019-05-05T10:08:44.981Z,3.57
2019-05-05T10:11:12.587Z,2.50
2019-05-05T10:13:40.161Z,4.72
2019-05-05T10:16:07.741Z,4.53
2019-05-05T10:18:35.997Z,4.23
2019-05-05T10:21:04.642Z,3.83
2019-05-05T10:23:30.529Z,3.57
2019-05-05T10:25:58.534Z,3.87
2019-05-05T10:28:26.116Z,3.77
2019-05-05T10:30:54.456Z,3.47
2019-05-05T10:33:24.143Z,3.80
2019-05-05T10:35:49.902Z,2.93
2019-05-05T10:38:18.078Z,4.15
2019-05-05T10:40:48.231Z,3.70
2019-05-05T10:43:14.852Z,4.15
2019-05-05T10:45:41.627Z,4.10
2019-05-05T10:48:09.212Z,3.63
2019-05-05T10:50:36.792Z,3.87
2019-05-05T10:53:04.801Z,3.53
2019-05-05T10:55:34.362Z,3.90
2019-05-05T10:57:59.587Z,2.90
2019-05-05T11:00:36.025Z,3.33
2019-05-05T11:03:04.045Z,3.75
2019-05-05T11:05:33.915Z,3.40
2019-05-05T11:07:59.582Z,3.45
2019-05-05T11:10:30.893Z,3.72
2019-05-05T11:12:58.513Z,2.93
2019-05-05T11:15:26.089Z,2.87
2019-05-05T11:17:54.235Z,2.60
2019-05-05T11:20:21.293Z,2.73
2019-05-05T11:22:49.636Z,2.53
2019-05-05T11:25:17.223Z,2.97
2019-05-05T11:27:45.639Z,3.47
2019-05-05T11:30:14.287Z,3.23
2019-05-05T11:32:58.662Z,2.70
2019-05-05T11:35:26.243Z,2.57
2019-05-05T11:37:54.245Z,2.80
2019-05-05T11:40:33.157Z,3.47
2019-05-05T11:43:00.744Z,2.17
2019-05-05T11:45:28.316Z,2.70
2019-05-05T11:47:55.932Z,3.20
2019-05-05T11:50:23.854Z,2.47
2019-05-05T11:52:51.141Z,2.70
2019-05-05T11:55:19.038Z,2.30
2019-05-05T11:57:46.615Z,2.50
2019-05-05T12:00:14.254Z,2.47
2019-05-05T12:02:43.857Z,2.30
2019-05-05T12:05:09.405Z,2.60
2019-05-05T12:07:37.032Z,2.97
2019-05-05T12:10:04.606Z,2.10
2019-05-05T12:12:33.671Z,2.50
2019-05-05T12:14:59.809Z,1.90
2019-05-05T12:17:36.185Z,1.60
2019-05-05T12:20:06.522Z,1.90
2019-05-05T12:22:34.140Z,1.80
2019-05-05T12:25:03.991Z,1.80
2019-05-05T12:27:29.307Z,1.97
2019-05-05T12:29:56.891Z,2.42
2019-05-05T12:32:24.471Z,1.60
2019-05-05T12:34:53.782Z,2.20
2019-05-05T12:37:19.677Z,2.40
2019-05-05T12:39:47.257Z,2.60
2019-05-05T12:42:15.418Z,2.70
2019-05-05T12:44:42.986Z,2.33
2019-05-05T12:47:10.560Z,2.53
2019-05-05T12:49:38.955Z,2.80
2019-05-05T12:52:07.294Z,2.53
2019-05-05T12:54:34.879Z,2.30
2019-05-05T12:57:04.323Z,6.27
2019-05-05T12:59:30.067Z,2.53
2019-05-05T13:01:58.369Z,2.00
2019-05-05T13:04:25.945Z,3.17
2019-05-05T13:06:54.144Z,2.07
2019-05-05T13:09:21.154Z,2.30
2019-05-05T13:11:48.735Z,1.60
2019-05-05T13:14:17.106Z,2.65
2019-05-05T13:16:52.816Z,2.03
2019-05-05T13:19:15.766Z,1.80
2019-05-05T13:22:03.544Z,2.03
2019-05-05T13:24:47.996Z,2.07
2019-05-05T13:27:19.468Z,1.50
2019-05-05T13:29:44.338Z,1.70
2019-05-05T13:32:11.614Z,1.90
2019-05-05T13:34:39.189Z,1.70
2019-05-05T13:37:07.577Z,1.80
2019-05-05T13:39:35.146Z,1.50
2019-05-05T13:42:04.555Z,1.50
2019-05-05T13:44:30.348Z,2.08
2019-05-05T13:46:58.694Z,1.50
2019-05-05T13:49:31.793Z,1.60
2019-05-05T13:51:59.413Z,1.50
2019-05-05T13:54:26.993Z,1.57
2019-05-05T13:56:54.571Z,1.43
2019-05-05T13:59:22.170Z,1.57
2019-05-05T14:01:50.544Z,1.43
2019-05-05T14:04:18.940Z,1.23
2019-05-05T14:06:49.650Z,1.60
2019-05-05T14:09:14.101Z,1.70
2019-05-05T14:11:41.718Z,1.83
2019-05-05T14:14:09.303Z,1.87
2019-05-05T14:16:36.886Z,2.07
2019-05-05T14:19:04.593Z,1.63
2019-05-05T14:21:33.823Z,2.10
2019-05-05T14:24:03.826Z,2.10
2019-05-05T14:26:32.238Z,1.80
2019-05-05T14:28:57.352Z,2.20
2019-05-05T14:31:24.930Z,2.03
2019-05-05T14:33:54.234Z,1.53
2019-05-05T14:36:38.532Z,2.10
2019-05-05T14:39:06.183Z,1.80
2019-05-05T14:41:35.262Z,1.70
2019-05-05T14:44:02.105Z,2.33
2019-05-05T14:46:29.744Z,2.20
2019-05-05T14:48:57.324Z,2.10
2019-05-05T14:51:24.906Z,2.33
2019-05-05T14:53:54.263Z,2.20
2019-05-05T14:56:20.910Z,2.40
2019-05-05T14:58:48.485Z,1.30
2019-05-05T15:01:16.152Z,1.33
2019-05-05T15:03:44.461Z,1.50
2019-05-05T15:06:20.341Z,1.90
2019-05-05T15:08:47.967Z,1.63
2019-05-05T15:11:16.305Z,1.50
2019-05-05T15:13:43.911Z,2.00
2019-05-05T15:16:11.494Z,1.70
2019-05-05T15:18:39.070Z,1.73
2019-05-05T15:21:06.734Z,1.57
2019-05-05T15:23:34.549Z,1.63
2019-05-05T15:26:01.899Z,2.00
2019-05-05T15:28:29.560Z,1.80
2019-05-05T15:30:57.133Z,1.90
2019-05-05T15:33:24.718Z,2.40
2019-05-05T15:35:53.901Z,1.63
2019-05-05T15:38:20.691Z,1.60
2019-05-05T15:40:48.258Z,1.70
2019-05-05T15:43:15.897Z,1.60
2019-05-05T15:45:43.487Z,1.90
2019-05-05T15:48:11.042Z,2.20
2019-05-05T15:50:38.841Z,1.63
2019-05-05T15:53:06.419Z,1.70
2019-05-05T15:55:34.050Z,2.00
2019-05-05T15:58:03.447Z,1.47
2019-05-05T16:00:29.249Z,1.23
2019-05-05T16:02:56.830Z,1.33
2019-05-05T16:05:24.456Z,1.10
2019-05-05T16:07:54.156Z,1.30
2019-05-05T16:10:19.625Z,1.73
2019-05-05T16:12:47.209Z,1.60
2019-05-05T16:15:17.270Z,1.50
2019-05-05T16:17:54.090Z,1.53
2019-05-05T16:20:39.951Z,1.30
2019-05-05T16:23:10.281Z,1.45
2019-05-05T16:25:37.862Z,1.13
2019-05-05T16:28:05.548Z,1.10
2019-05-05T16:30:33.859Z,0.90
2019-05-05T16:33:00.651Z,1.00
2019-05-05T16:35:28.228Z,1.10
2019-05-05T16:37:55.853Z,1.23
2019-05-05T16:40:25.795Z,1.23
2019-05-05T16:42:51.001Z,1.10
2019-05-05T16:45:18.610Z,1.57
2019-05-05T16:47:46.187Z,1.58
2019-05-05T16:50:14.152Z,1.30
2019-05-05T16:52:59.696Z,1.20
2019-05-05T16:55:45.153Z,1.40
2019-05-05T16:58:13.909Z,1.43
2019-05-05T17:00:40.314Z,1.40
2019-05-05T17:03:08.676Z,1.30
2019-05-05T17:05:36.308Z,1.60
2019-05-05T17:08:04.611Z,1.50
2019-05-05T17:10:31.855Z,1.10
2019-05-05T17:12:59.455Z,1.43
2019-05-05T17:15:35.198Z,1.30
2019-05-05T17:18:18.150Z,1.63
2019-05-05T17:20:57.385Z,1.63
2019-05-05T17:23:25.009Z,1.60
2019-05-05T17:25:53.801Z,1.53
2019-05-05T17:28:20.938Z,1.90
2019-05-05T17:30:48.538Z,2.20
2019-05-05T17:33:16.191Z,2.00
2019-05-05T17:35:44.532Z,1.80
2019-05-05T17:38:14.794Z,1.90
2019-05-05T17:40:43.752Z,1.90
2019-05-05T17:43:24.814Z,1.80
2019-05-05T17:45:44.778Z,1.80
2019-05-05T17:48:14.081Z,1.70
2019-05-05T17:50:39.946Z,1.87
2019-05-05T17:53:14.833Z,2.00
2019-05-05T17:55:40.664Z,2.33
2019-05-05T17:58:08.239Z,2.10
2019-05-05T18:00:35.860Z,3.07
2019-05-05T18:03:04.318Z,3.40
2019-05-05T18:05:49.278Z,3.57
2019-05-05T18:08:36.192Z,3.60
2019-05-05T18:11:03.974Z,3.43
2019-05-05T18:13:35.129Z,3.73
2019-05-05T18:16:02.114Z,3.30
2019-05-05T18:18:29.694Z,3.73
2019-05-05T18:20:57.254Z,4.20
2019-05-05T18:23:24.895Z,3.57
2019-05-05T18:25:52.479Z,3.73
2019-05-05T18:28:20.330Z,4.17
2019-05-05T18:30:48.435Z,4.23
2019-05-05T18:33:16.000Z,3.77
2019-05-05T18:35:44.367Z,3.97
2019-05-05T18:38:11.196Z,4.30
2019-05-05T18:40:38.770Z,4.00
2019-05-05T18:43:06.423Z,4.33
2019-05-05T18:45:35.542Z,3.90
2019-05-05T18:48:01.570Z,3.97
2019-05-05T18:50:29.192Z,4.20
2019-05-05T18:52:56.766Z,4.17
2019-05-05T18:55:24.332Z,3.57
2019-05-05T18:57:53.831Z,3.73
2019-05-05T19:00:19.506Z,3.87
2019-05-05T19:02:49.568Z,4.23
2019-05-05T19:05:35.387Z,3.73
2019-05-05T19:08:05.921Z,4.33
2019-05-05T19:10:33.761Z,4.62
2019-05-05T19:13:01.894Z,4.17
2019-05-05T19:15:29.466Z,3.57
2019-05-05T19:17:57.044Z,3.40
2019-05-05T19:20:27.563Z,4.07
2019-05-05T19:22:54.347Z,3.83
2019-05-05T19:25:20.220Z,3.93
2019-05-05T19:27:48.554Z,4.53
2019-05-05T19:30:16.120Z,4.30
2019-05-05T19:32:43.855Z,4.57
2019-05-05T19:35:11.372Z,4.03
2019-05-05T19:37:39.027Z,4.17
2019-05-05T19:40:06.942Z,5.60
2019-05-05T19:42:34.519Z,5.80
2019-05-05T19:45:05.122Z,4.77
2019-05-05T19:47:34.047Z,4.20
2019-05-05T19:50:17.248Z,4.47
2019-05-05T19:52:44.053Z,4.00
2019-05-05T19:55:10.325Z,3.47
2019-05-05T19:57:37.932Z,4.33
2019-05-05T20:00:05.564Z,4.43
2019-05-05T20:02:34.130Z,4.30
2019-05-05T20:05:00.714Z,4.30
2019-05-05T20:07:28.341Z,4.80
2019-05-05T20:09:55.914Z,4.10
2019-05-05T20:12:23.484Z,4.30
2019-05-05T20:14:51.439Z,4.40
2019-05-05T20:17:21.921Z,4.37
2019-05-05T20:19:50.299Z,3.73
2019-05-05T20:22:18.640Z,3.87
2019-05-05T20:24:46.214Z,3.73
2019-05-05T20:27:14.085Z,4.53
2019-05-05T20:29:41.405Z,4.20
2019-05-05T20:32:08.977Z,4.20
2019-05-05T20:34:36.596Z,3.90
2019-05-05T20:37:14.170Z,4.00
2019-05-05T20:39:43.708Z,4.40
2019-05-05T20:42:09.665Z,4.73
2019-05-05T20:44:37.246Z,4.00
2019-05-05T20:47:04.854Z,4.33
2019-05-05T20:49:34.494Z,5.03
2019-05-05T20:52:00.014Z,4.70
2019-05-05T20:54:27.633Z,3.93
2019-05-05T20:56:55.206Z,5.57
2019-05-05T20:59:29.981Z,4.57
2019-05-05T21:01:50.446Z,4.10
2019-05-05T21:04:18.026Z,3.90
2019-05-05T21:06:45.617Z,3.83
2019-05-05T21:09:14.349Z,4.27
2019-05-05T21:11:43.767Z,4.10
2019-05-05T21:14:10.148Z,4.00
2019-05-05T21:16:38.494Z,4.40
2019-05-05T21:19:06.070Z,4.57
2019-05-05T21:21:34.337Z,4.93
2019-05-05T21:24:01.268Z,4.80
2019-05-05T21:26:46.673Z,4.67
2019-05-05T21:29:14.291Z,5.10
2019-05-05T21:31:43.832Z,5.87
2019-05-05T21:34:09.857Z,5.40
2019-05-05T21:36:37.506Z,5.00
2019-05-05T21:39:05.081Z,6.47
2019-05-05T21:41:33.934Z,5.33
2019-05-05T21:44:00.255Z,6.27
2019-05-05T21:46:27.827Z,7.53
2019-05-05T21:48:55.905Z,5.80
2019-05-05T21:51:28.982Z,5.17
2019-05-05T21:54:14.821Z,6.37
2019-05-05T21:56:42.438Z,5.33
2019-05-05T21:59:10.021Z,5.17
2019-05-05T22:01:40.016Z,4.47
2019-05-05T22:04:05.243Z,4.60
2019-05-05T22:06:33.665Z,5.20
2019-05-05T22:09:00.390Z,5.17
2019-05-05T22:11:27.989Z,6.43
2019-05-05T22:13:56.331Z,7.30
2019-05-05T22:16:23.950Z,6.20
2019-05-05T22:18:51.522Z,7.50
2019-05-05T22:21:19.095Z,5.73
2019-05-05T22:23:46.706Z,6.17
2019-05-05T22:26:15.201Z,5.63
2019-05-05T22:28:44.523Z,5.60
2019-05-05T22:31:10.232Z,6.13
2019-05-05T22:33:37.809Z,6.50
2019-05-05T22:36:07.110Z,7.97
2019-05-05T22:38:33.958Z,10.73
2019-05-05T22:41:00.938Z,8.63
2019-05-05T22:43:28.516Z,13.30
2019-05-05T22:45:56.225Z,8.30
2019-05-05T22:48:23.977Z,6.47
2019-05-05T22:50:51.300Z,7.27
2019-05-05T22:53:18.877Z,5.97
2019-05-05T22:55:47.218Z,6.57
2019-05-05T22:58:16.836Z,8.60
2019-05-05T23:00:44.408Z,9.17
2019-05-05T23:03:17.917Z,7.07
2019-05-05T23:05:46.298Z,9.13
2019-05-05T23:08:13.868Z,7.10
2019-05-05T23:10:43.785Z,6.70
2019-05-05T23:13:09.821Z,8.67
2019-05-05T23:15:38.156Z,8.83
2019-05-05T23:18:18.092Z,6.50
2019-05-05T23:21:03.938Z,10.73
2019-05-05T23:23:38.071Z,7.27
2019-05-05T23:26:05.646Z,6.93
2019-05-05T23:28:33.937Z,6.60
2019-05-05T23:31:00.817Z,7.33
2019-05-05T23:33:28.394Z,7.83
2019-05-05T23:35:56.036Z,6.47
2019-05-05T23:38:23.999Z,6.73
2019-05-05T23:40:51.176Z,6.30
2019-05-05T23:43:19.547Z,6.37
2019-05-05T23:45:47.125Z,6.57
2019-05-05T23:48:15.481Z,5.97
2019-05-05T23:50:44.537Z,6.10
2019-05-05T23:53:13.733Z,6.87
2019-05-05T23:55:39.056Z,8.13
2019-05-05T23:58:06.635Z,8.87
